Sturgeon, Pennsylvania
Current Conditions -  °F | °C
As of 4:51 AM on Thursday 27 Nov 2014 (Local Time) from KPIT Reporting Station
Haze Haze  
Wind Chill: 32°   Ceiling: 1900
Heat Index: 32°   Visibility: 2mi
Dew Point: 31°   Wind: 3mph
Humidity: 96%   Direction: 250°WSW
Pressure: 29.99"   Gusts: NA
Location:  40.38°N, 80.21°W
Report Text: KPIT 270951Z 25003KT 2SM BR SCT004 BKN019 OVC046 00/M01 A2999 RMK AO2 SLP173 T00001006
Loading
Personal Weather Stations






























Interactive Weather Map New forecast layout! Learn more

10-Day Weather Forecast

Advertisements
Track Severe Weather on mobile